Terminal Aerodrome Forecast
Issued by NWS Wilmington, NC

Home | Current Version | Previous Version | Text Only | Print | Product List | Glossary On
Versions: 1 2 3 4 5 6 7 8 9 10 11 12 13 14 15 16 17 18 19 20 21 22 23 24 25 26 27 28 29 30
000
FTUS42 KILM 161131
TAFILM
TAF
KILM 161131Z 1612/1712 14007KT 6SM -RA OVC060
      TEMPO 1612/1614 BKN020 OVC060
     FM161400 16011G16KT 5SM -RA OVC010
     FM161700 22011G18KT P6SM VCSH OVC010
     FM161800 26012G19KT P6SM VCSH BKN025
     FM162000 28011G18KT P6SM BKN070
     FM170000 31008KT P6SM SKC=

USA.gov is the U.S. government's official web portal to all federal, state and local government web resources and services.